sensor_id;sensor_type;location;lat;lon;timestamp;P1;durP1;ratioP1;P2;durP2;ratioP2
66272;SDS011;58450;52.150;4.466;2023-07-29T00:01:25;3.45;;;1.48;;
66272;SDS011;58450;52.150;4.466;2023-07-29T00:03:52;3.78;;;1.42;;
66272;SDS011;58450;52.150;4.466;2023-07-29T00:06:20;3.20;;;1.25;;
66272;SDS011;58450;52.150;4.466;2023-07-29T00:08:49;3.17;;;1.42;;
66272;SDS011;58450;52.150;4.466;2023-07-29T00:11:17;5.13;;;1.65;;
66272;SDS011;58450;52.150;4.466;2023-07-29T00:13:44;4.60;;;1.52;;
66272;SDS011;58450;52.150;4.466;2023-07-29T00:16:13;2.15;;;1.23;;
66272;SDS011;58450;52.150;4.466;2023-07-29T00:18:41;6.20;;;1.88;;
66272;SDS011;58450;52.150;4.466;2023-07-29T00:21:09;5.57;;;1.67;;
66272;SDS011;58450;52.150;4.466;2023-07-29T00:23:36;4.80;;;1.60;;
66272;SDS011;58450;52.150;4.466;2023-07-29T00:26:05;3.13;;;1.40;;
66272;SDS011;58450;52.150;4.466;2023-07-29T00:28:33;3.80;;;1.60;;
66272;SDS011;58450;52.150;4.466;2023-07-29T00:31:01;4.95;;;1.60;;
66272;SDS011;58450;52.150;4.466;2023-07-29T00:33:29;6.20;;;1.80;;
66272;SDS011;58450;52.150;4.466;2023-07-29T00:35:56;4.13;;;1.67;;
66272;SDS011;58450;52.150;4.466;2023-07-29T00:38:27;3.63;;;1.40;;
66272;SDS011;58450;52.150;4.466;2023-07-29T00:40:55;3.17;;;1.45;;
66272;SDS011;58450;52.150;4.466;2023-07-29T00:43:26;3.45;;;1.50;;
66272;SDS011;58450;52.150;4.466;2023-07-29T00:45:53;4.72;;;1.83;;
66272;SDS011;58450;52.150;4.466;2023-07-29T00:48:23;4.60;;;1.60;;
66272;SDS011;58450;52.150;4.466;2023-07-29T00:50:52;5.55;;;2.13;;
66272;SDS011;58450;52.150;4.466;2023-07-29T00:53:21;3.80;;;1.40;;
66272;SDS011;58450;52.150;4.466;2023-07-29T00:55:49;4.18;;;1.60;;
66272;SDS011;58450;52.150;4.466;2023-07-29T00:58:16;3.25;;;1.40;;
66272;SDS011;58450;52.150;4.466;2023-07-29T01:00:46;3.78;;;1.63;;
66272;SDS011;58450;52.150;4.466;2023-07-29T01:03:14;4.03;;;1.50;;
66272;SDS011;58450;52.150;4.466;2023-07-29T01:05:45;4.47;;;1.83;;
66272;SDS011;58450;52.150;4.466;2023-07-29T01:08:27;3.35;;;1.50;;
66272;SDS011;58450;52.150;4.466;2023-07-29T01:11:08;3.53;;;1.50;;
66272;SDS011;58450;52.150;4.466;2023-07-29T01:13:57;3.47;;;1.48;;
66272;SDS011;58450;52.150;4.466;2023-07-29T01:16:34;4.07;;;1.65;;
66272;SDS011;58450;52.150;4.466;2023-07-29T01:19:11;3.30;;;1.67;;
66272;SDS011;58450;52.150;4.466;2023-07-29T01:22:03;3.33;;;1.50;;
66272;SDS011;58450;52.150;4.466;2023-07-29T01:24:35;2.10;;;1.38;;
66272;SDS011;58450;52.150;4.466;2023-07-29T01:27:03;2.33;;;1.42;;
66272;SDS011;58450;52.150;4.466;2023-07-29T01:29:31;6.07;;;1.88;;
66272;SDS011;58450;52.150;4.466;2023-07-29T01:32:01;2.90;;;1.35;;
66272;SDS011;58450;52.150;4.466;2023-07-29T01:34:39;4.38;;;1.65;;
66272;SDS011;58450;52.150;4.466;2023-07-29T01:37:17;3.53;;;1.55;;
66272;SDS011;58450;52.150;4.466;2023-07-29T01:39:54;3.55;;;1.70;;
66272;SDS011;58450;52.150;4.466;2023-07-29T01:42:25;2.77;;;1.40;;
66272;SDS011;58450;52.150;4.466;2023-07-29T01:44:54;2.42;;;1.40;;
66272;SDS011;58450;52.150;4.466;2023-07-29T01:47:21;3.90;;;1.50;;
66272;SDS011;58450;52.150;4.466;2023-07-29T01:49:49;3.67;;;1.60;;
66272;SDS011;58450;52.150;4.466;2023-07-29T01:52:16;2.05;;;1.33;;
66272;SDS011;58450;52.150;4.466;2023-07-29T01:54:44;3.35;;;1.73;;
66272;SDS011;58450;52.150;4.466;2023-07-29T01:57:13;3.22;;;1.60;;
66272;SDS011;58450;52.150;4.466;2023-07-29T01:59:41;2.78;;;1.52;;
66272;SDS011;58450;52.150;4.466;2023-07-29T02:02:08;3.75;;;1.75;;
66272;SDS011;58450;52.150;4.466;2023-07-29T02:04:36;2.80;;;1.50;;
66272;SDS011;58450;52.150;4.466;2023-07-29T02:07:04;4.00;;;1.58;;
66272;SDS011;58450;52.150;4.466;2023-07-29T02:09:32;4.53;;;1.60;;
66272;SDS011;58450;52.150;4.466;2023-07-29T02:11:59;3.00;;;1.75;;
66272;SDS011;58450;52.150;4.466;2023-07-29T02:14:29;3.25;;;1.60;;
66272;SDS011;58450;52.150;4.466;2023-07-29T02:16:56;2.83;;;1.63;;
66272;SDS011;58450;52.150;4.466;2023-07-29T02:19:24;3.28;;;1.75;;
66272;SDS011;58450;52.150;4.466;2023-07-29T02:21:52;3.90;;;1.70;;
66272;SDS011;58450;52.150;4.466;2023-07-29T02:24:20;5.60;;;1.85;;
66272;SDS011;58450;52.150;4.466;2023-07-29T02:26:47;2.33;;;1.30;;
66272;SDS011;58450;52.150;4.466;2023-07-29T02:29:15;3.67;;;1.42;;
66272;SDS011;58450;52.150;4.466;2023-07-29T02:31:44;3.20;;;1.42;;
66272;SDS011;58450;52.150;4.466;2023-07-29T02:34:11;2.78;;;1.40;;
66272;SDS011;58450;52.150;4.466;2023-07-29T02:36:39;2.45;;;1.40;;
66272;SDS011;58450;52.150;4.466;2023-07-29T02:39:07;2.75;;;1.30;;
66272;SDS011;58450;52.150;4.466;2023-07-29T02:41:34;2.63;;;1.60;;
66272;SDS011;58450;52.150;4.466;2023-07-29T02:44:02;4.05;;;1.50;;
66272;SDS011;58450;52.150;4.466;2023-07-29T02:46:32;4.22;;;1.52;;
66272;SDS011;58450;52.150;4.466;2023-07-29T02:49:01;1.75;;;1.40;;
66272;SDS011;58450;52.150;4.466;2023-07-29T02:51:29;3.38;;;1.50;;
66272;SDS011;58450;52.150;4.466;2023-07-29T02:53:56;3.42;;;1.58;;
66272;SDS011;58450;52.150;4.466;2023-07-29T02:56:24;3.55;;;1.30;;
66272;SDS011;58450;52.150;4.466;2023-07-29T02:58:52;2.92;;;1.60;;
66272;SDS011;58450;52.150;4.466;2023-07-29T03:01:19;2.78;;;1.50;;
66272;SDS011;58450;52.150;4.466;2023-07-29T03:03:47;2.97;;;1.30;;
66272;SDS011;58450;52.150;4.466;2023-07-29T03:06:16;5.90;;;1.85;;
66272;SDS011;58450;52.150;4.466;2023-07-29T03:08:44;4.63;;;1.92;;
66272;SDS011;58450;52.150;4.466;2023-07-29T03:11:12;5.43;;;1.80;;
66272;SDS011;58450;52.150;4.466;2023-07-29T03:13:41;4.80;;;2.00;;
66272;SDS011;58450;52.150;4.466;2023-07-29T03:16:10;2.78;;;1.60;;
66272;SDS011;58450;52.150;4.466;2023-07-29T03:18:41;3.08;;;1.67;;
66272;SDS011;58450;52.150;4.466;2023-07-29T03:21:10;3.38;;;1.50;;
66272;SDS011;58450;52.150;4.466;2023-07-29T03:23:40;4.20;;;2.00;;
66272;SDS011;58450;52.150;4.466;2023-07-29T03:26:08;4.45;;;1.90;;
66272;SDS011;58450;52.150;4.466;2023-07-29T03:28:37;5.43;;;2.08;;
66272;SDS011;58450;52.150;4.466;2023-07-29T03:31:07;4.57;;;2.22;;
66272;SDS011;58450;52.150;4.466;2023-07-29T03:33:35;3.42;;;1.83;;
66272;SDS011;58450;52.150;4.466;2023-07-29T03:36:03;6.43;;;1.95;;
66272;SDS011;58450;52.150;4.466;2023-07-29T03:38:31;3.55;;;2.10;;
66272;SDS011;58450;52.150;4.466;2023-07-29T03:41:02;4.68;;;1.85;;
66272;SDS011;58450;52.150;4.466;2023-07-29T03:43:30;4.93;;;2.03;;
66272;SDS011;58450;52.150;4.466;2023-07-29T03:45:57;3.55;;;1.90;;
66272;SDS011;58450;52.150;4.466;2023-07-29T03:48:25;4.72;;;2.10;;
66272;SDS011;58450;52.150;4.466;2023-07-29T03:50:53;6.65;;;2.30;;
66272;SDS011;58450;52.150;4.466;2023-07-29T03:53:21;5.38;;;2.53;;
66272;SDS011;58450;52.150;4.466;2023-07-29T03:55:48;7.28;;;2.78;;
66272;SDS011;58450;52.150;4.466;2023-07-29T03:58:18;5.35;;;2.33;;
66272;SDS011;58450;52.150;4.466;2023-07-29T04:00:45;6.93;;;2.38;;
66272;SDS011;58450;52.150;4.466;2023-07-29T04:03:13;5.30;;;2.20;;
66272;SDS011;58450;52.150;4.466;2023-07-29T04:05:41;4.95;;;2.03;;
66272;SDS011;58450;52.150;4.466;2023-07-29T04:08:09;5.82;;;2.22;;
66272;SDS011;58450;52.150;4.466;2023-07-29T04:10:37;5.75;;;2.17;;
66272;SDS011;58450;52.150;4.466;2023-07-29T04:13:04;4.47;;;2.08;;
66272;SDS011;58450;52.150;4.466;2023-07-29T04:15:33;6.78;;;2.08;;
66272;SDS011;58450;52.150;4.466;2023-07-29T04:18:01;5.97;;;2.40;;
66272;SDS011;58450;52.150;4.466;2023-07-29T04:20:28;5.93;;;2.05;;
66272;SDS011;58450;52.150;4.466;2023-07-29T04:22:56;6.32;;;2.30;;
66272;SDS011;58450;52.150;4.466;2023-07-29T04:25:24;7.18;;;2.33;;
66272;SDS011;58450;52.150;4.466;2023-07-29T04:27:51;6.40;;;2.35;;
66272;SDS011;58450;52.150;4.466;2023-07-29T04:30:19;8.85;;;2.67;;
66272;SDS011;58450;52.150;4.466;2023-07-29T04:32:48;5.75;;;2.45;;
66272;SDS011;58450;52.150;4.466;2023-07-29T04:35:16;7.70;;;2.38;;
66272;SDS011;58450;52.150;4.466;2023-07-29T04:37:43;6.22;;;2.08;;
66272;SDS011;58450;52.150;4.466;2023-07-29T04:40:13;4.95;;;2.10;;
66272;SDS011;58450;52.150;4.466;2023-07-29T04:42:41;5.50;;;2.40;;
66272;SDS011;58450;52.150;4.466;2023-07-29T04:45:09;5.38;;;2.50;;
66272;SDS011;58450;52.150;4.466;2023-07-29T04:47:37;7.78;;;2.70;;
66272;SDS011;58450;52.150;4.466;2023-07-29T04:50:07;7.13;;;2.50;;
66272;SDS011;58450;52.150;4.466;2023-07-29T04:52:35;5.25;;;2.22;;
66272;SDS011;58450;52.150;4.466;2023-07-29T04:55:03;7.82;;;2.38;;
66272;SDS011;58450;52.150;4.466;2023-07-29T04:57:31;9.25;;;2.25;;
66272;SDS011;58450;52.150;4.466;2023-07-29T04:59:59;6.18;;;2.15;;
66272;SDS011;58450;52.150;4.466;2023-07-29T05:02:27;7.72;;;1.92;;
66272;SDS011;58450;52.150;4.466;2023-07-29T05:04:54;6.65;;;2.33;;
66272;SDS011;58450;52.150;4.466;2023-07-29T05:07:23;5.78;;;2.45;;
66272;SDS011;58450;52.150;4.466;2023-07-29T05:09:51;4.35;;;2.20;;
66272;SDS011;58450;52.150;4.466;2023-07-29T05:12:18;5.18;;;2.30;;
66272;SDS011;58450;52.150;4.466;2023-07-29T05:14:46;4.38;;;2.13;;
66272;SDS011;58450;52.150;4.466;2023-07-29T05:17:13;5.43;;;2.22;;
66272;SDS011;58450;52.150;4.466;2023-07-29T05:19:41;6.00;;;2.72;;
66272;SDS011;58450;52.150;4.466;2023-07-29T05:22:09;6.20;;;2.30;;
66272;SDS011;58450;52.150;4.466;2023-07-29T05:24:38;6.03;;;2.20;;
66272;SDS011;58450;52.150;4.466;2023-07-29T05:27:06;7.03;;;2.75;;
66272;SDS011;58450;52.150;4.466;2023-07-29T05:29:34;4.85;;;2.05;;
66272;SDS011;58450;52.150;4.466;2023-07-29T05:32:02;4.72;;;2.10;;
66272;SDS011;58450;52.150;4.466;2023-07-29T05:34:30;6.50;;;2.40;;
66272;SDS011;58450;52.150;4.466;2023-07-29T05:36:57;5.70;;;2.35;;
66272;SDS011;58450;52.150;4.466;2023-07-29T05:39:25;5.25;;;2.33;;
66272;SDS011;58450;52.150;4.466;2023-07-29T05:41:54;5.65;;;2.22;;
66272;SDS011;58450;52.150;4.466;2023-07-29T05:44:21;9.52;;;2.72;;
66272;SDS011;58450;52.150;4.466;2023-07-29T05:46:49;6.32;;;2.75;;
66272;SDS011;58450;52.150;4.466;2023-07-29T05:49:16;5.97;;;2.05;;
66272;SDS011;58450;52.150;4.466;2023-07-29T05:51:44;5.03;;;1.90;;
66272;SDS011;58450;52.150;4.466;2023-07-29T05:54:12;4.25;;;2.20;;
66272;SDS011;58450;52.150;4.466;2023-07-29T05:56:39;6.43;;;2.60;;
66272;SDS011;58450;52.150;4.466;2023-07-29T05:59:08;6.20;;;1.98;;
66272;SDS011;58450;52.150;4.466;2023-07-29T06:01:36;6.43;;;2.20;;
66272;SDS011;58450;52.150;4.466;2023-07-29T06:04:03;6.43;;;2.38;;
66272;SDS011;58450;52.150;4.466;2023-07-29T06:06:31;6.45;;;2.00;;
66272;SDS011;58450;52.150;4.466;2023-07-29T06:08:59;4.80;;;2.13;;
66272;SDS011;58450;52.150;4.466;2023-07-29T06:11:26;5.55;;;1.90;;
66272;SDS011;58450;52.150;4.466;2023-07-29T06:13:54;5.10;;;2.10;;
66272;SDS011;58450;52.150;4.466;2023-07-29T06:16:23;4.25;;;1.60;;
66272;SDS011;58450;52.150;4.466;2023-07-29T06:18:50;5.53;;;1.67;;
66272;SDS011;58450;52.150;4.466;2023-07-29T06:21:19;3.80;;;1.60;;
66272;SDS011;58450;52.150;4.466;2023-07-29T06:23:47;4.15;;;1.67;;
66272;SDS011;58450;52.150;4.466;2023-07-29T06:26:14;4.95;;;1.40;;
66272;SDS011;58450;52.150;4.466;2023-07-29T06:28:42;7.28;;;1.70;;
66272;SDS011;58450;52.150;4.466;2023-07-29T06:31:10;3.85;;;1.33;;
66272;SDS011;58450;52.150;4.466;2023-07-29T06:33:38;3.70;;;1.38;;
66272;SDS011;58450;52.150;4.466;2023-07-29T06:36:06;3.95;;;1.50;;
66272;SDS011;58450;52.150;4.466;2023-07-29T06:38:34;4.45;;;1.42;;
66272;SDS011;58450;52.150;4.466;2023-07-29T06:41:01;6.68;;;1.55;;
66272;SDS011;58450;52.150;4.466;2023-07-29T06:43:29;5.45;;;1.65;;
66272;SDS011;58450;52.150;4.466;2023-07-29T06:45:56;5.60;;;1.50;;
66272;SDS011;58450;52.150;4.466;2023-07-29T06:48:24;4.47;;;1.50;;
66272;SDS011;58450;52.150;4.466;2023-07-29T06:50:53;5.93;;;1.50;;
66272;SDS011;58450;52.150;4.466;2023-07-29T06:53:26;7.03;;;1.45;;
66272;SDS011;58450;52.150;4.466;2023-07-29T06:55:53;3.28;;;1.45;;
66272;SDS011;58450;52.150;4.466;2023-07-29T06:58:21;5.25;;;1.40;;
66272;SDS011;58450;52.150;4.466;2023-07-29T07:00:49;5.15;;;1.50;;
66272;SDS011;58450;52.150;4.466;2023-07-29T07:03:16;6.35;;;1.65;;
66272;SDS011;58450;52.150;4.466;2023-07-29T07:05:44;7.80;;;1.70;;
66272;SDS011;58450;52.150;4.466;2023-07-29T07:08:13;4.63;;;1.52;;
66272;SDS011;58450;52.150;4.466;2023-07-29T07:10:40;6.10;;;1.73;;
66272;SDS011;58450;52.150;4.466;2023-07-29T07:13:08;4.72;;;1.70;;
66272;SDS011;58450;52.150;4.466;2023-07-29T07:15:36;4.88;;;1.60;;
66272;SDS011;58450;52.150;4.466;2023-07-29T07:18:03;3.30;;;1.50;;
66272;SDS011;58450;52.150;4.466;2023-07-29T07:20:31;6.95;;;1.80;;
66272;SDS011;58450;52.150;4.466;2023-07-29T07:22:58;6.53;;;1.63;;
66272;SDS011;58450;52.150;4.466;2023-07-29T07:25:27;2.63;;;1.23;;
66272;SDS011;58450;52.150;4.466;2023-07-29T07:27:55;4.75;;;1.52;;
66272;SDS011;58450;52.150;4.466;2023-07-29T07:30:23;2.78;;;1.35;;
66272;SDS011;58450;52.150;4.466;2023-07-29T07:32:50;5.13;;;1.58;;
66272;SDS011;58450;52.150;4.466;2023-07-29T07:35:18;5.18;;;1.52;;
66272;SDS011;58450;52.150;4.466;2023-07-29T07:37:45;4.32;;;1.58;;
66272;SDS011;58450;52.150;4.466;2023-07-29T07:40:13;4.45;;;1.40;;
66272;SDS011;58450;52.150;4.466;2023-07-29T07:42:42;5.10;;;1.55;;
66272;SDS011;58450;52.150;4.466;2023-07-29T07:45:10;5.13;;;1.70;;
66272;SDS011;58450;52.150;4.466;2023-07-29T07:47:37;5.65;;;1.58;;
66272;SDS011;58450;52.150;4.466;2023-07-29T07:50:05;5.10;;;1.40;;
66272;SDS011;58450;52.150;4.466;2023-07-29T07:52:33;4.13;;;1.30;;
66272;SDS011;58450;52.150;4.466;2023-07-29T07:55:01;3.40;;;1.60;;
66272;SDS011;58450;52.150;4.466;2023-07-29T07:57:28;5.28;;;1.88;;
66272;SDS011;58450;52.150;4.466;2023-07-29T07:59:57;5.38;;;1.80;;
66272;SDS011;58450;52.150;4.466;2023-07-29T08:02:25;5.93;;;1.60;;
66272;SDS011;58450;52.150;4.466;2023-07-29T08:04:52;8.52;;;1.92;;
66272;SDS011;58450;52.150;4.466;2023-07-29T08:07:20;4.95;;;1.40;;
66272;SDS011;58450;52.150;4.466;2023-07-29T08:09:47;5.55;;;1.75;;
66272;SDS011;58450;52.150;4.466;2023-07-29T08:12:16;5.35;;;1.88;;
66272;SDS011;58450;52.150;4.466;2023-07-29T08:14:43;3.80;;;1.38;;
66272;SDS011;58450;52.150;4.466;2023-07-29T08:17:12;5.82;;;1.70;;
66272;SDS011;58450;52.150;4.466;2023-07-29T08:19:40;7.18;;;1.80;;
66272;SDS011;58450;52.150;4.466;2023-07-29T08:22:07;4.53;;;1.52;;
66272;SDS011;58450;52.150;4.466;2023-07-29T08:24:35;6.88;;;2.10;;
66272;SDS011;58450;52.150;4.466;2023-07-29T08:27:03;5.05;;;1.60;;
66272;SDS011;58450;52.150;4.466;2023-07-29T08:29:31;5.78;;;1.90;;
66272;SDS011;58450;52.150;4.466;2023-07-29T08:31:58;4.30;;;1.92;;
66272;SDS011;58450;52.150;4.466;2023-07-29T08:34:27;6.32;;;1.95;;
66272;SDS011;58450;52.150;4.466;2023-07-29T08:36:55;6.30;;;1.70;;
66272;SDS011;58450;52.150;4.466;2023-07-29T08:39:23;6.95;;;1.90;;
66272;SDS011;58450;52.150;4.466;2023-07-29T08:41:51;8.18;;;1.90;;
66272;SDS011;58450;52.150;4.466;2023-07-29T08:44:30;4.70;;;1.55;;
66272;SDS011;58450;52.150;4.466;2023-07-29T08:47:02;3.60;;;1.40;;
66272;SDS011;58450;52.150;4.466;2023-07-29T08:49:32;3.97;;;1.30;;
66272;SDS011;58450;52.150;4.466;2023-07-29T08:52:00;5.43;;;1.42;;
66272;SDS011;58450;52.150;4.466;2023-07-29T08:54:29;5.93;;;1.50;;
66272;SDS011;58450;52.150;4.466;2023-07-29T08:56:56;5.63;;;1.67;;
66272;SDS011;58450;52.150;4.466;2023-07-29T08:59:25;5.45;;;1.58;;
66272;SDS011;58450;52.150;4.466;2023-07-29T09:01:55;5.10;;;1.63;;
66272;SDS011;58450;52.150;4.466;2023-07-29T09:04:25;6.25;;;1.60;;
66272;SDS011;58450;52.150;4.466;2023-07-29T09:06:55;5.40;;;1.90;;
66272;SDS011;58450;52.150;4.466;2023-07-29T09:09:25;5.53;;;1.60;;
66272;SDS011;58450;52.150;4.466;2023-07-29T09:11:53;5.53;;;1.80;;
66272;SDS011;58450;52.150;4.466;2023-07-29T09:14:21;5.65;;;1.58;;
66272;SDS011;58450;52.150;4.466;2023-07-29T09:16:50;6.55;;;2.00;;
66272;SDS011;58450;52.150;4.466;2023-07-29T09:19:18;8.27;;;2.22;;
66272;SDS011;58450;52.150;4.466;2023-07-29T09:21:46;5.60;;;1.67;;
66272;SDS011;58450;52.150;4.466;2023-07-29T09:24:16;7.80;;;2.50;;
66272;SDS011;58450;52.150;4.466;2023-07-29T09:26:48;4.22;;;1.73;;
66272;SDS011;58450;52.150;4.466;2023-07-29T09:29:20;6.43;;;1.60;;
66272;SDS011;58450;52.150;4.466;2023-07-29T09:31:49;5.57;;;1.97;;
66272;SDS011;58450;52.150;4.466;2023-07-29T09:34:17;4.97;;;1.80;;
66272;SDS011;58450;52.150;4.466;2023-07-29T09:36:45;7.47;;;1.95;;
66272;SDS011;58450;52.150;4.466;2023-07-29T09:39:12;7.32;;;2.15;;
66272;SDS011;58450;52.150;4.466;2023-07-29T09:41:41;6.45;;;1.80;;
66272;SDS011;58450;52.150;4.466;2023-07-29T09:44:15;5.82;;;1.77;;
66272;SDS011;58450;52.150;4.466;2023-07-29T09:46:45;5.40;;;1.52;;
66272;SDS011;58450;52.150;4.466;2023-07-29T09:49:13;4.00;;;1.60;;
66272;SDS011;58450;52.150;4.466;2023-07-29T09:51:41;6.47;;;1.80;;
66272;SDS011;58450;52.150;4.466;2023-07-29T09:54:08;6.05;;;1.75;;
66272;SDS011;58450;52.150;4.466;2023-07-29T09:56:39;5.22;;;1.70;;
66272;SDS011;58450;52.150;4.466;2023-07-29T09:59:10;4.88;;;1.50;;
66272;SDS011;58450;52.150;4.466;2023-07-29T10:01:39;6.95;;;1.77;;
66272;SDS011;58450;52.150;4.466;2023-07-29T10:04:08;4.72;;;1.80;;
66272;SDS011;58450;52.150;4.466;2023-07-29T10:06:37;5.00;;;1.80;;
66272;SDS011;58450;52.150;4.466;2023-07-29T10:09:06;6.18;;;1.77;;
66272;SDS011;58450;52.150;4.466;2023-07-29T10:11:34;4.55;;;1.95;;
66272;SDS011;58450;52.150;4.466;2023-07-29T10:14:05;3.60;;;1.80;;
66272;SDS011;58450;52.150;4.466;2023-07-29T10:16:35;5.88;;;2.10;;
66272;SDS011;58450;52.150;4.466;2023-07-29T10:19:04;4.35;;;2.08;;
66272;SDS011;58450;52.150;4.466;2023-07-29T10:21:34;5.47;;;1.80;;
66272;SDS011;58450;52.150;4.466;2023-07-29T10:24:06;6.40;;;2.15;;
66272;SDS011;58450;52.150;4.466;2023-07-29T10:26:46;4.20;;;1.70;;
66272;SDS011;58450;52.150;4.466;2023-07-29T10:29:19;3.92;;;1.60;;
66272;SDS011;58450;52.150;4.466;2023-07-29T10:31:49;5.95;;;1.75;;
66272;SDS011;58450;52.150;4.466;2023-07-29T10:34:20;4.07;;;1.80;;
66272;SDS011;58450;52.150;4.466;2023-07-29T10:36:48;5.80;;;1.83;;
66272;SDS011;58450;52.150;4.466;2023-07-29T10:39:18;4.32;;;1.52;;
66272;SDS011;58450;52.150;4.466;2023-07-29T10:41:54;3.30;;;1.30;;
66272;SDS011;58450;52.150;4.466;2023-07-29T10:47:21;3.28;;;1.40;;
66272;SDS011;58450;52.150;4.466;2023-07-29T10:49:51;3.92;;;1.60;;
66272;SDS011;58450;52.150;4.466;2023-07-29T10:52:31;1.60;;;0.82;;
66272;SDS011;58450;52.150;4.466;2023-07-29T10:55:23;3.78;;;1.25;;
66272;SDS011;58450;52.150;4.466;2023-07-29T10:58:08;2.33;;;0.80;;
66272;SDS011;58450;52.150;4.466;2023-07-29T11:00:42;1.35;;;0.80;;
66272;SDS011;58450;52.150;4.466;2023-07-29T11:03:12;1.85;;;0.70;;
66272;SDS011;58450;52.150;4.466;2023-07-29T11:05:43;1.35;;;0.80;;
66272;SDS011;58450;52.150;4.466;2023-07-29T11:08:21;2.70;;;0.85;;
66272;SDS011;58450;52.150;4.466;2023-07-29T11:11:01;3.88;;;1.02;;
66272;SDS011;58450;52.150;4.466;2023-07-29T11:13:33;1.88;;;0.80;;
66272;SDS011;58450;52.150;4.466;2023-07-29T11:16:04;3.95;;;1.08;;
66272;SDS011;58450;52.150;4.466;2023-07-29T11:18:33;4.65;;;1.10;;
66272;SDS011;58450;52.150;4.466;2023-07-29T11:21:03;6.85;;;1.50;;
66272;SDS011;58450;52.150;4.466;2023-07-29T11:23:32;2.70;;;0.88;;
66272;SDS011;58450;52.150;4.466;2023-07-29T11:26:01;1.95;;;0.60;;
66272;SDS011;58450;52.150;4.466;2023-07-29T11:28:30;2.45;;;0.85;;
66272;SDS011;58450;52.150;4.466;2023-07-29T11:30:58;3.00;;;0.90;;
66272;SDS011;58450;52.150;4.466;2023-07-29T11:33:27;2.60;;;1.00;;
66272;SDS011;58450;52.150;4.466;2023-07-29T11:35:54;2.42;;;0.95;;
66272;SDS011;58450;52.150;4.466;2023-07-29T11:38:22;3.00;;;1.00;;
66272;SDS011;58450;52.150;4.466;2023-07-29T11:40:54;3.28;;;1.23;;
66272;SDS011;58450;52.150;4.466;2023-07-29T11:43:23;2.70;;;1.00;;
66272;SDS011;58450;52.150;4.466;2023-07-29T11:45:51;2.92;;;1.30;;
66272;SDS011;58450;52.150;4.466;2023-07-29T11:48:27;4.47;;;1.60;;
66272;SDS011;58450;52.150;4.466;2023-07-29T11:50:55;4.55;;;1.20;;
66272;SDS011;58450;52.150;4.466;2023-07-29T11:53:25;4.07;;;1.38;;
66272;SDS011;58450;52.150;4.466;2023-07-29T11:55:55;4.28;;;1.58;;
66272;SDS011;58450;52.150;4.466;2023-07-29T11:58:23;6.22;;;1.58;;
66272;SDS011;58450;52.150;4.466;2023-07-29T12:00:51;4.25;;;1.25;;
66272;SDS011;58450;52.150;4.466;2023-07-29T12:03:19;2.30;;;1.13;;
66272;SDS011;58450;52.150;4.466;2023-07-29T12:05:48;3.33;;;1.08;;
66272;SDS011;58450;52.150;4.466;2023-07-29T12:08:16;2.95;;;1.17;;
66272;SDS011;58450;52.150;4.466;2023-07-29T12:10:44;3.13;;;1.10;;
66272;SDS011;58450;52.150;4.466;2023-07-29T12:13:12;2.85;;;1.25;;
66272;SDS011;58450;52.150;4.466;2023-07-29T12:15:39;2.95;;;1.00;;
66272;SDS011;58450;52.150;4.466;2023-07-29T12:18:07;2.17;;;1.00;;
66272;SDS011;58450;52.150;4.466;2023-07-29T12:20:36;4.13;;;1.17;;
66272;SDS011;58450;52.150;4.466;2023-07-29T12:23:05;2.00;;;1.00;;
66272;SDS011;58450;52.150;4.466;2023-07-29T12:25:34;2.88;;;1.10;;
66272;SDS011;58450;52.150;4.466;2023-07-29T12:28:02;2.40;;;0.98;;
66272;SDS011;58450;52.150;4.466;2023-07-29T12:30:32;3.17;;;0.85;;
66272;SDS011;58450;52.150;4.466;2023-07-29T12:33:00;2.65;;;1.00;;
66272;SDS011;58450;52.150;4.466;2023-07-29T12:35:35;2.65;;;0.70;;
66272;SDS011;58450;52.150;4.466;2023-07-29T12:38:04;2.80;;;0.80;;
66272;SDS011;58450;52.150;4.466;2023-07-29T12:40:32;2.22;;;0.90;;
66272;SDS011;58450;52.150;4.466;2023-07-29T12:43:05;2.60;;;0.80;;
66272;SDS011;58450;52.150;4.466;2023-07-29T12:45:35;2.45;;;0.73;;
66272;SDS011;58450;52.150;4.466;2023-07-29T12:48:05;2.47;;;0.90;;
66272;SDS011;58450;52.150;4.466;2023-07-29T12:50:33;2.95;;;0.93;;
66272;SDS011;58450;52.150;4.466;2023-07-29T12:53:01;2.70;;;0.98;;
66272;SDS011;58450;52.150;4.466;2023-07-29T12:55:30;3.25;;;0.75;;
66272;SDS011;58450;52.150;4.466;2023-07-29T12:57:57;2.47;;;0.88;;
66272;SDS011;58450;52.150;4.466;2023-07-29T13:00:25;3.17;;;0.98;;
66272;SDS011;58450;52.150;4.466;2023-07-29T13:02:52;2.72;;;0.90;;
66272;SDS011;58450;52.150;4.466;2023-07-29T13:05:20;2.00;;;0.95;;
66272;SDS011;58450;52.150;4.466;2023-07-29T13:07:48;2.90;;;1.00;;
66272;SDS011;58450;52.150;4.466;2023-07-29T13:10:16;3.70;;;0.90;;
66272;SDS011;58450;52.150;4.466;2023-07-29T13:12:45;3.72;;;1.20;;
66272;SDS011;58450;52.150;4.466;2023-07-29T13:15:14;2.38;;;0.88;;
66272;SDS011;58450;52.150;4.466;2023-07-29T13:17:41;3.53;;;1.00;;
66272;SDS011;58450;52.150;4.466;2023-07-29T13:20:09;2.65;;;1.30;;
66272;SDS011;58450;52.150;4.466;2023-07-29T13:22:36;2.53;;;1.00;;
66272;SDS011;58450;52.150;4.466;2023-07-29T13:25:04;2.97;;;0.93;;
66272;SDS011;58450;52.150;4.466;2023-07-29T13:27:32;4.05;;;1.10;;
66272;SDS011;58450;52.150;4.466;2023-07-29T13:30:01;3.10;;;1.00;;
66272;SDS011;58450;52.150;4.466;2023-07-29T13:32:29;2.20;;;1.00;;
66272;SDS011;58450;52.150;4.466;2023-07-29T13:34:56;3.10;;;0.93;;
66272;SDS011;58450;52.150;4.466;2023-07-29T13:37:24;3.03;;;1.10;;
66272;SDS011;58450;52.150;4.466;2023-07-29T13:39:51;1.98;;;0.90;;
66272;SDS011;58450;52.150;4.466;2023-07-29T13:42:19;2.25;;;0.95;;
66272;SDS011;58450;52.150;4.466;2023-07-29T13:44:47;2.50;;;1.23;;
66272;SDS011;58450;52.150;4.466;2023-07-29T13:47:15;3.22;;;1.08;;
66272;SDS011;58450;52.150;4.466;2023-07-29T13:49:43;3.08;;;1.00;;
66272;SDS011;58450;52.150;4.466;2023-07-29T13:52:11;2.35;;;0.90;;
66272;SDS011;58450;52.150;4.466;2023-07-29T13:54:40;3.60;;;1.08;;
66272;SDS011;58450;52.150;4.466;2023-07-29T13:57:08;3.65;;;1.23;;
66272;SDS011;58450;52.150;4.466;2023-07-29T13:59:36;4.03;;;1.33;;
66272;SDS011;58450;52.150;4.466;2023-07-29T14:02:04;3.67;;;1.25;;
66272;SDS011;58450;52.150;4.466;2023-07-29T14:04:34;3.75;;;1.40;;
66272;SDS011;58450;52.150;4.466;2023-07-29T14:07:01;3.53;;;1.50;;
66272;SDS011;58450;52.150;4.466;2023-07-29T14:09:29;4.28;;;1.30;;
66272;SDS011;58450;52.150;4.466;2023-07-29T14:11:57;3.35;;;1.40;;
66272;SDS011;58450;52.150;4.466;2023-07-29T14:14:25;4.57;;;1.63;;
66272;SDS011;58450;52.150;4.466;2023-07-29T14:16:52;3.38;;;1.30;;
66272;SDS011;58450;52.150;4.466;2023-07-29T14:19:20;4.20;;;1.10;;
66272;SDS011;58450;52.150;4.466;2023-07-29T14:21:49;4.00;;;1.50;;
66272;SDS011;58450;52.150;4.466;2023-07-29T14:24:17;3.33;;;1.20;;
66272;SDS011;58450;52.150;4.466;2023-07-29T14:26:45;3.78;;;1.52;;
66272;SDS011;58450;52.150;4.466;2023-07-29T14:29:13;3.55;;;1.23;;
66272;SDS011;58450;52.150;4.466;2023-07-29T14:31:40;4.68;;;1.65;;
66272;SDS011;58450;52.150;4.466;2023-07-29T14:34:08;4.72;;;1.70;;
66272;SDS011;58450;52.150;4.466;2023-07-29T14:36:36;4.53;;;1.52;;
66272;SDS011;58450;52.150;4.466;2023-07-29T14:39:05;4.68;;;1.60;;
66272;SDS011;58450;52.150;4.466;2023-07-29T14:41:33;6.10;;;1.63;;
66272;SDS011;58450;52.150;4.466;2023-07-29T14:44:01;3.83;;;1.40;;
66272;SDS011;58450;52.150;4.466;2023-07-29T14:46:28;3.80;;;1.30;;
66272;SDS011;58450;52.150;4.466;2023-07-29T14:48:56;4.28;;;1.30;;
66272;SDS011;58450;52.150;4.466;2023-07-29T14:51:23;3.00;;;1.30;;
66272;SDS011;58450;52.150;4.466;2023-07-29T14:53:51;4.85;;;1.38;;
66272;SDS011;58450;52.150;4.466;2023-07-29T14:56:20;2.78;;;1.20;;
66272;SDS011;58450;52.150;4.466;2023-07-29T14:58:48;5.10;;;1.20;;
66272;SDS011;58450;52.150;4.466;2023-07-29T15:01:16;2.17;;;1.10;;